ホニアラ の空港の天気 - METARとTAF

ホニアラ国際空港 ( AGGH / HIR ) - ソロモン諸島 ガダルカナル島ホニアラ
飛行場実況気象(Metar)
観測時間06/24 20:00 SBT (06/24 09:00 UTC)
風向・風速南東 2m/s
視程10km以上
天気現象
少しの雲 雲底高度 520m
全天の8割程度の雲 雲底高度 3050m
気温27℃
湿度84%
気圧1011hPa
METARAGGH 240900Z 14003KT 9999 FEW017 BKN100 27/24 Q1011
過去の天気等 Google飛行場航空写真 Wunderground天気予報

過去48時間のMETAR

飛行場予報(TAF)
発表時間: 6/24 16:10 SBT (6/24 05:10 UTC)
予報対象時間: 24日17時 SBT ~ 25日17時 SBT
風向・風速東北東 5m/s
視程10km以上
全天の4割程度の雲 雲底高度 550m
TAF AGGH 240510Z 2406/2506 07010KT 9999 SCT018 T 30 28 26 23 Q 1008 1010 1011 1009